Flight Track Log - Related Links

Times and Time Zones

All times are in EDT time to prevent confusion due to time zone crossing. See the EJM826 flight status page for this flight to view local times or setup timezone preferences in your user account.

Time Position Orientation Groundspeed Altitude Reporting Facility
EDT Latitude Longitude Course Direction KTS MPH feet Rate Location/Type
Tue 01:51:51 PM 45.3881 -85.0111 180° South 247 284 3,600  Level Minneapolis Center
Tue 01:52:53 PM 45.3269 -85.0628 211° Southwest 255 293 6,600 2,390 Climbing Minneapolis Center
Tue 01:53:00 PM 45.0663 -85.2169 209° Southwest  Level FlightAware Approximate
Tue 01:53:54 PM 45.2744 -85.1092 212° Southwest 263 303 8,500  Level Minneapolis Center
Tue 01:54:00 PM 44.9630 -85.2989 209° Southwest  Level FlightAware Approximate
Tue 01:54:57 PM 45.1739 -85.1972 212° Southwest 289 333 12,100  Level Minneapolis Center
Tue 01:55:00 PM 44.8596 -85.3805 209° Southwest  Level FlightAware Approximate
Tue 01:55:59 PM 45.0981 -85.2608 211° Southwest 302 348 14,400  Level Minneapolis Center
Tue 01:56:00 PM 44.7561 -85.4619 209° Southwest  Level FlightAware Approximate
Tue 01:57:00 PM 44.6575 -85.5500 180° South  Level FlightAware Approximate
Tue 01:57:01 PM 45.0197 -85.3267 211° Southwest 314 361 16,400  Level Minneapolis Center
Tue 01:58:03 PM 44.9394 -85.3944 211° Southwest 329 379 18,600 2,032 Climbing Minneapolis Center
Tue 01:59:05 PM 44.8561 -85.4644 211° Southwest 344 396 20,600 1,790 Climbing Minneapolis Center
Tue 02:00:07 PM 44.7722 -85.5356 211° Southwest 352 405 22,300 1,790 Climbing Minneapolis Center
Tue 02:01:09 PM 44.6692 -85.6219 211° Southwest 358 412 24,300 1,728 Climbing Minneapolis Center
Tue 02:02:12 PM 44.5800 -85.6969 211° Southwest 370 426 25,900 1,440 Climbing Minneapolis Center
Tue 02:03:14 PM 44.4878 -85.7725 210° Southwest 379 436 27,300 1,306 Climbing Minneapolis Center
Tue 02:04:16 PM 44.3950 -85.8500 211° Southwest 386 444 28,600 1,258 Climbing Minneapolis Center
Tue 02:05:18 PM 44.2992 -85.9292 211° Southwest 397 457 29,900 1,258 Climbing Minneapolis Center
Tue 02:06:20 PM 44.2025 -86.0103 211° Southwest 403 464 31,200 1,258 Climbing Minneapolis Center
Tue 02:07:22 PM 44.0908 -86.1019 211° Southwest 415 478 32,500 1,452 Climbing Minneapolis Center
Tue 02:08:24 PM 43.9908 -86.1842 211° Southwest 419 482 34,200 1,403 Climbing Minneapolis Center
Tue 02:09:26 PM 43.8917 -86.2653 211° Southwest 411 473 35,400 1,167 Climbing Minneapolis Center
Tue 02:10:12 PM 43.8156 -86.3278 211° Southwest 412 474 36,300 1,111 Climbing Chicago Center
Tue 02:11:14 PM 43.7189 -86.4056 210° Southwest 406 467 37,400 968 Climbing Chicago Center
Tue 02:12:16 PM 43.6219 -86.4839 210° Southwest 405 466 38,300 823 Climbing Chicago Center
Tue 02:13:18 PM 43.5244 -86.5644 211° Southwest 410 472 39,100 774 Climbing Chicago Center
Tue 02:14:20 PM 43.4061 -86.6603 210° Southwest 412 474 39,900 435 Climbing Chicago Center
Tue 02:15:22 PM 43.3050 -86.7406 210° Southwest 421 484 40,000 48 Climbing Chicago Center
Tue 02:16:25 PM 43.2014 -86.8231 210° Southwest 433 498 40,000  Level Chicago Center
Tue 02:17:27 PM 43.0947 -86.9094 211° Southwest 446 513 40,000  Level Chicago Center
Tue 02:18:29 PM 42.9861 -86.9944 210° Southwest 452 520 40,000  Level Chicago Center
Tue 02:19:31 PM 42.8539 -87.0975 210° Southwest 457 526 40,000  Level Chicago Center
Tue 02:20:33 PM 42.7444 -87.1806 209° Southwest 454 522 40,000  Level Chicago Center
Tue 02:21:35 PM 42.6378 -87.2650 210° Southwest 447 514 40,000  Level Chicago Center
Tue 02:22:37 PM 42.5294 -87.3483 210° Southwest 434 499 40,000  Level Chicago Center
Tue 02:23:39 PM 42.4283 -87.4283 210° Southwest 426 490 40,000  Level Chicago Center
Tue 02:24:41 PM 42.3269 -87.5056 209° Southwest 422 486 40,000  Level Chicago Center
Tue 02:25:43 PM 42.2047 -87.5994 210° Southwest 427 491 40,000  Level Chicago Center
Tue 02:26:45 PM 42.1025 -87.6775 210° Southwest 426 490 40,000  Level Chicago Center
Tue 02:27:48 PM 41.9986 -87.7564 209° Southwest 433 498 40,000 144 Level Chicago Center
Tue 02:28:50 PM 41.8956 -87.8331 209° Southwest 429 494 40,300 629 Climbing Chicago Center
Tue 02:29:52 PM 41.7925 -87.9114 210° Southwest 427 491 41,300 1,065 Climbing Chicago Center
Tue 02:30:54 PM 41.6736 -88.0011 209° Southwest 411 473 42,500 823 Climbing Chicago Center
Tue 02:31:56 PM 41.5778 -88.0731 209° Southwest 402 463 43,000 242 Climbing Chicago Center
Tue 02:32:58 PM 41.4711 -88.1525 209° Southwest 418 481 43,000  Level Chicago Center
Tue 02:34:00 PM 41.3606 -88.2361 210° Southwest 422 486 43,000  Level Chicago Center
Tue 02:35:02 PM 41.2567 -88.3122 209° Southwest 430 495 43,000  Level Chicago Center
Tue 02:36:04 PM 41.1528 -88.3881 209° Southwest 430 495 43,000  Level Chicago Center
Tue 02:37:06 PM 41.0483 -88.4650 209° Southwest 432 497 43,000  Level Chicago Center
Tue 02:38:08 PM 40.9444 -88.5414 209° Southwest 431 496 43,000  Level Chicago Center
Tue 02:39:10 PM 40.8183 -88.6333 209° Southwest 432 497 43,000  Level Chicago Center
Tue 02:40:12 PM 40.7133 -88.7083 208° Southwest 433 498 43,000  Level Chicago Center
Tue 02:41:15 PM 40.6081 -88.7836 209° Southwest 433 498 43,000  Level Chicago Center
Tue 02:42:17 PM 40.5028 -88.8594 209° Southwest 430 495 43,000  Level Chicago Center
Tue 02:43:19 PM 40.4008 -88.9333 209° Southwest 420 483 43,000  Level Chicago Center
Tue 02:44:21 PM 40.2989 -89.0061 209° Southwest 416 479 43,000  Level Chicago Center
Tue 02:45:23 PM 40.1764 -89.0936 209° Southwest 416 479 43,000  Level Chicago Center
Tue 02:46:25 PM 40.0750 -89.1633 208° Southwest 411 473 43,000  Level Chicago Center
Tue 02:46:59 PM 40.0331 -89.1947 210° Southwest 415 478 43,000  Level Kansas City Center
Tue 02:48:01 PM 39.9103 -89.2814 208° Southwest 416 479 43,000  Level Kansas City Center
Tue 02:49:03 PM 39.8061 -89.3542 208° Southwest 422 486 43,000  Level Kansas City Center
Tue 02:50:05 PM 39.6972 -89.4306 208° Southwest 423 487 43,000  Level Kansas City Center
Tue 02:51:07 PM 39.5931 -89.5047 209° Southwest 426 490 43,000  Level Kansas City Center
Tue 02:52:09 PM 39.4875 -89.5772 208° Southwest 428 493 43,000  Level Kansas City Center
Tue 02:53:11 PM 39.3825 -89.6511 209° Southwest 429 494 43,000  Level Kansas City Center
Tue 02:54:13 PM 39.2767 -89.7236 208° Southwest 432 497 43,000  Level Kansas City Center
Tue 02:55:15 PM 39.1503 -89.8156 209° Southwest 427 491 43,000  Level Kansas City Center
Tue 02:56:17 PM 39.0469 -89.8872 208° Southwest 424 488 43,000  Level Kansas City Center
Tue 02:57:19 PM 38.9347 -89.9633 208° Southwest 425 489 43,000  Level Kansas City Center
Tue 02:58:21 PM 38.8278 -90.0328 207° Southwest 422 486 43,000  Level Kansas City Center
Tue 02:59:24 PM 38.7225 -90.1042 208° Southwest 424 488 43,000  Level Kansas City Center
Tue 03:00:26 PM 38.6250 -90.1681 207° Southwest 430 495 43,000  Level Kansas City Center
Tue 03:01:28 PM 38.5158 -90.2414 208° Southwest 434 499 43,000  Level Kansas City Center
Tue 03:02:30 PM 38.4081 -90.3136 208° Southwest 434 499 43,000  Level Kansas City Center
Tue 03:03:32 PM 38.3028 -90.3856 208° Southwest 430 495 43,000  Level Kansas City Center
Tue 03:04:34 PM 38.1758 -90.4711 208° Southwest 430 495 43,000  Level Kansas City Center
Tue 03:05:36 PM 38.0689 -90.5419 208° Southwest 432 497 43,000  Level Kansas City Center
Tue 03:06:38 PM 37.9636 -90.6114 207° Southwest 429 494 43,000  Level Kansas City Center
Tue 03:07:40 PM 37.8561 -90.6833 208° Southwest 434 499 43,000  Level Kansas City Center
Tue 03:08:42 PM 37.7458 -90.7436 203° Southwest 431 496 43,000  Level Kansas City Center
Tue 03:09:44 PM 37.6278 -90.7903 197° South 441 507 43,000  Level Kansas City Center
Tue 03:10:46 PM 37.5003 -90.8436 198° South 441 507 43,000  Level Kansas City Center
Tue 03:11:48 PM 37.3822 -90.8911 198° South 442 509 43,000  Level Kansas City Center
Tue 03:12:50 PM 37.2447 -90.9458 198° South 434 499 43,000  Level Kansas City Center
Tue 03:13:52 PM 37.1256 -90.9944 198° South 438 504 43,000  Level Kansas City Center
Tue 03:14:54 PM 37.0147 -91.0389 198° South 445 512 43,000  Level Kansas City Center
Tue 03:15:56 PM 36.8972 -91.0858 198° South 446 513 43,000  Level Kansas City Center
Tue 03:16:58 PM 36.7692 -91.1367 198° South 443 510 43,000  Level Kansas City Center
Tue 03:18:00 PM 36.6517 -91.1831 198° South 442 509 43,000  Level Kansas City Center
Tue 03:19:02 PM 36.5192 -91.2347 197° South 448 516 43,000  Level Kansas City Center
Tue 03:19:56 PM 36.4178 -91.2803 200° South 443 510 43,000  Level Memphis Center
Tue 03:20:56 PM 36.2986 -91.3253 197° South 443 510 43,000  Level Memphis Center
Tue 03:21:56 PM 36.1794 -91.3700 197° South 443 510 43,000  Level Memphis Center
Tue 03:22:56 PM 36.0625 -91.4175 198° South 443 510 43,000  Level Memphis Center
Tue 03:23:56 PM 35.9347 -91.4644 197° South 443 510 43,000  Level Memphis Center
Tue 03:24:56 PM 35.8175 -91.5117 198° South 443 510 43,000  Level Memphis Center
Tue 03:25:56 PM 35.6942 -91.5583 197° South 448 516 43,000  Level Memphis Center
Tue 03:26:56 PM 35.5747 -91.6000 196° South 448 516 43,000  Level Memphis Center
Tue 03:27:56 PM 35.4556 -91.6442 197° South 455 524 43,000  Level Memphis Center
Tue 03:28:56 PM 35.3300 -91.6831 194° South 455 524 43,000  Level Memphis Center
Tue 03:29:56 PM 35.2064 -91.7192 193° South 455 524 43,000  Level Memphis Center
Tue 03:30:56 PM 35.0850 -91.7553 194° South 450 518 43,000  Level Memphis Center
Tue 03:31:56 PM 34.9617 -91.7914 193° South 455 524 43,000  Level Memphis Center
Tue 03:32:56 PM 34.8422 -91.8297 195° South 455 524 43,000  Level Memphis Center
Tue 03:33:56 PM 34.7186 -91.8681 194° South 455 524 43,000  Level Memphis Center
Tue 03:34:56 PM 34.5972 -91.9064 195° South 455 524 43,000  Level Memphis Center
Tue 03:35:56 PM 34.4778 -91.9419 194° South 455 524 43,000  Level Memphis Center
Tue 03:36:56 PM 34.3542 -91.9772 193° South 455 524 43,000  Level Memphis Center
Tue 03:37:56 PM 34.2328 -92.0203 196° South 455 524 43,000  Level Memphis Center
Tue 03:38:56 PM 34.1153 -92.0606 196° South 450 518 43,000  Level Memphis Center
Tue 03:39:56 PM 34.0019 -92.0986 196° South 445 512 43,000  Level Memphis Center
Tue 03:41:38 PM 33.8222 -92.1783 200° South 422 486 43,000  Level Fort Worth Center
Tue 03:42:39 PM 33.7081 -92.2425 205° Southwest 439 505 43,000  Level Fort Worth Center
Tue 03:43:39 PM 33.5958 -92.3067 205° Southwest 445 512 43,000  Level Fort Worth Center
Tue 03:44:39 PM 33.4733 -92.3758 205° Southwest 445 512 43,000  Level Fort Worth Center
Tue 03:45:38 PM 33.3564 -92.4275 200° South 450 518 43,000  Level Fort Worth Center
Tue 03:46:38 PM 33.2281 -92.4494 188° South 457 526 43,000  Level Fort Worth Center
Tue 03:47:39 PM 33.1036 -92.4689 187° South 457 526 43,000  Level Fort Worth Center
Tue 03:48:38 PM 32.9792 -92.4931 189° South 463 533 43,000  Level Fort Worth Center
Tue 03:50:40 PM 32.7225 -92.5408 189° South 457 526 43,000  Level Houston Center
Tue 03:51:42 PM 32.5967 -92.5650 189° South 459 528 43,000  Level Houston Center
Tue 03:52:45 PM 32.4622 -92.5908 189° South 454 522 43,000  Level Houston Center
Tue 03:53:47 PM 32.3372 -92.6136 189° South 455 524 43,000  Level Houston Center
Tue 03:54:49 PM 32.2114 -92.6350 188° South 455 524 43,000  Level Houston Center
Tue 03:55:51 PM 32.0869 -92.6586 189° South 456 525 43,000  Level Houston Center
Tue 03:56:53 PM 31.9681 -92.7044 198° South 454 522 43,000  Level Houston Center
Tue 03:57:55 PM 31.8767 -92.8031 223° Southwest 453 521 43,000  Level Houston Center
Tue 03:58:57 PM 31.7756 -92.9317 227° Southwest 451 519 43,000  Level Houston Center
Tue 03:59:59 PM 31.6900 -93.0397 227° Southwest 454 522 43,000  Level Houston Center
Tue 04:01:02 PM 31.6056 -93.1467 227° Southwest 450 518 43,000  Level Houston Center
Tue 04:02:04 PM 31.5192 -93.2542 227° Southwest 455 524 43,000  Level Houston Center
Tue 04:03:06 PM 31.4244 -93.3728 227° Southwest 461 531 43,000  Level Houston Center
Tue 04:04:08 PM 31.3367 -93.4847 227° Southwest 466 536 43,000 -532 Level Houston Center
Tue 04:05:10 PM 31.2378 -93.6053 226° Southwest 462 532 41,900 -1,645 Descending Houston Center
Tue 04:06:12 PM 31.1544 -93.7122 228° Southwest 451 519 39,600 -1,887 Descending Houston Center
Tue 04:07:14 PM 31.0658 -93.8203 226° Southwest 466 536 38,000 -1,452 Descending Houston Center
Tue 04:08:16 PM 30.9753 -93.9325 227° Southwest 477 549 36,600 -2,496 Descending Houston Center
Tue 04:09:19 PM 30.8633 -94.0686 226° Southwest 488 562 32,800 -3,408 Descending Houston Center
Tue 04:10:21 PM 30.7683 -94.1839 226° Southwest 495 570 29,500 -3,242 Descending Houston Center
Tue 04:11:23 PM 30.6728 -94.3011 227° Southwest 502 578 26,100 -3,625 Descending Houston Center
Tue 04:11:57 PM 30.6056 -94.3814 226° Southwest 506 582 23,700 -3,833 Descending Houston Center
Tue 04:13:11 PM 30.4933 -94.5222 227° Southwest 491 565 19,200 -3,513 Descending Houston Center
Tue 04:14:29 PM 30.3997 -94.6642 233° Southwest 430 495 14,800 -2,859 Descending Houston Center
Tue 04:15:19 PM 30.3414 -94.7550 233° Southwest 399 459 13,100 -1,016 Descending Houston Center
Tue 04:16:33 PM 30.2719 -94.8642 234° Southwest 380 437 12,700 -878 Descending Houston Center
Tue 04:17:22 PM 30.2186 -94.9447 233° Southwest 372 428 11,300 -1,473 Descending Houston Center
Tue 04:18:23 PM 30.1506 -95.0475 233° Southwest 377 434 10,000 -590 Descending Houston Center
Tue 04:19:24 PM 30.0628 -95.0972 206° Southwest 329 379 10,100 -541 Climbing Houston Center
Tue 04:20:25 PM 29.9906 -95.1325 203° Southwest 266 306 8,900 -1,623 Descending Houston Center
Tue 04:21:26 PM 29.9200 -95.1653 202° Southwest 271 312 6,800 -1,436 Descending Houston Center
Tue 04:22:22 PM 29.8614 -95.1894 200° South 224 258 6,100 -390 Descending Houston Center
Tue 04:23:29 PM 29.7967 -95.2167 200° South 224 258 6,000  Descending Houston Center
Tue 04:24:31 PM 29.7358 -95.2408 199° South 221 254 6,100  Climbing Houston Center
Tue 04:25:26 PM 29.7028 -95.2906 233° Southwest 218 251 6,000 -923 Descending Houston Center
Tue 04:26:28 PM 29.6792 -95.3536 247° West 214 246 4,300 -1,581 Descending Houston Center
Tue 04:27:35 PM 29.7108 -95.4028 307° West 247 284 2,600 -1,125 Descending Houston Center
Tue 04:28:36 PM 29.7083 -95.3500 93° East 182 209 1,900 -836 Descending Houston Center
Tue 04:29:37 PM 29.6733 -95.3133 138° Southeast 160 184 900 -984 Descending Houston Center

Login

Don't have an account? Register now (free) for customized features, flight alerts, and more!